createdAt,value
2023-02-13T00:00:59.228Z,23.73
2023-02-13T00:03:01.162Z,21.13
2023-02-13T00:05:08.662Z,25.35
2023-02-13T00:07:13.252Z,18.02
2023-02-13T00:11:18.720Z,21.40
2023-02-13T00:13:26.202Z,20.13
2023-02-13T00:15:30.325Z,21.88
2023-02-13T00:17:34.626Z,19.48
2023-02-13T00:19:36.224Z,23.20
2023-02-13T00:21:37.722Z,25.00
2023-02-13T00:23:39.344Z,21.75
2023-02-13T00:25:43.972Z,19.10
2023-02-13T00:27:48.555Z,22.17
2023-02-13T00:29:56.131Z,21.08
2023-02-13T00:34:05.902Z,22.48
2023-02-13T00:36:08.492Z,21.50
2023-02-13T00:38:10.014Z,20.15
2023-02-13T00:40:11.824Z,30.83
2023-02-13T00:42:31.992Z,23.48
2023-02-13T00:44:36.556Z,21.60
2023-02-13T00:46:41.038Z,22.05
2023-02-13T00:48:43.028Z,22.25
2023-02-13T00:50:47.456Z,24.95
2023-02-13T00:52:51.998Z,22.90
2023-02-13T00:54:53.574Z,26.65
2023-02-13T00:56:58.198Z,24.42
2023-02-13T00:58:59.706Z,22.25
2023-02-13T01:01:01.213Z,22.13
2023-02-13T01:05:07.310Z,26.50
2023-02-13T01:07:11.672Z,26.80
2023-02-13T01:09:13.237Z,23.83
2023-02-13T01:13:23.678Z,23.17
2023-02-13T01:15:28.512Z,24.88
2023-02-13T01:17:30.026Z,27.02
2023-02-13T01:19:34.440Z,29.85
2023-02-13T01:23:40.307Z,22.08
2023-02-13T01:25:42.297Z,24.48
2023-02-13T01:27:43.930Z,25.13
2023-02-13T01:29:45.591Z,25.23
2023-02-13T01:31:50.212Z,27.13
2023-02-13T01:33:58.018Z,26.58
2023-02-13T01:36:00.357Z,26.75
2023-02-13T01:38:01.953Z,27.88
2023-02-13T01:40:07.687Z,28.42
2023-02-13T01:42:29.397Z,23.63
2023-02-13T01:44:49.082Z,29.13
2023-02-13T01:46:56.653Z,24.92
2023-02-13T01:49:07.709Z,24.83
2023-02-13T01:51:14.807Z,27.77
2023-02-13T01:55:30.056Z,28.58
2023-02-13T01:57:45.661Z,26.42
2023-02-13T02:00:01.936Z,26.17
2023-02-13T02:02:14.620Z,23.65
2023-02-13T02:04:27.702Z,25.70
2023-02-13T02:06:37.721Z,24.90
2023-02-13T02:08:50.117Z,24.70
2023-02-13T02:11:00.406Z,26.42
2023-02-13T02:13:22.605Z,22.23
2023-02-13T02:15:39.632Z,21.27
2023-02-13T02:17:51.238Z,24.60
2023-02-13T02:20:14.615Z,25.95
2023-02-13T02:22:32.546Z,25.40
2023-02-13T02:24:55.785Z,29.42
2023-02-13T02:27:17.196Z,29.05
2023-02-13T02:29:47.411Z,30.65
2023-02-13T02:32:10.018Z,28.63
2023-02-13T02:34:22.706Z,27.40
2023-02-13T02:36:33.653Z,31.05
2023-02-13T02:38:56.661Z,32.33
2023-02-13T02:41:04.005Z,31.23
2023-02-13T02:43:08.565Z,29.42
2023-02-13T02:45:34.699Z,37.80
2023-02-13T02:48:02.600Z,32.13
2023-02-13T02:50:23.847Z,32.40
2023-02-13T02:52:48.456Z,33.90
2023-02-13T02:55:08.851Z,32.67
2023-02-13T02:57:13.621Z,36.40
2023-02-13T02:59:36.400Z,31.33
2023-02-13T03:01:57.816Z,37.22
2023-02-13T03:04:43.682Z,36.80
2023-02-13T03:06:56.172Z,36.95
2023-02-13T03:09:22.474Z,34.33
2023-02-13T03:11:45.944Z,40.38
2023-02-13T03:13:50.401Z,36.50
2023-02-13T03:16:13.321Z,34.83
2023-02-13T03:18:33.518Z,35.65
2023-02-13T03:21:10.213Z,41.75
2023-02-13T03:23:16.167Z,41.72
2023-02-13T03:25:30.344Z,38.25
2023-02-13T03:28:14.177Z,37.25
2023-02-13T03:30:20.641Z,37.05
2023-02-13T03:32:40.717Z,41.47
2023-02-13T03:35:04.536Z,40.78
2023-02-13T03:37:30.028Z,40.58
2023-02-13T03:39:39.084Z,43.67
2023-02-13T03:42:04.287Z,35.70
2023-02-13T03:44:05.956Z,40.05
2023-02-13T03:46:07.917Z,44.47
2023-02-13T03:48:30.143Z,58.55
2023-02-13T03:50:50.170Z,41.58
2023-02-13T03:53:11.926Z,42.05
2023-02-13T03:55:34.115Z,39.17
2023-02-13T03:57:55.576Z,42.65
2023-02-13T03:59:57.369Z,38.83
2023-02-13T04:02:10.540Z,41.30
2023-02-13T04:04:17.536Z,38.35
2023-02-13T04:06:24.113Z,51.28
2023-02-13T04:08:31.702Z,42.20
2023-02-13T04:10:43.893Z,44.63
2023-02-13T04:12:55.996Z,39.83
2023-02-13T04:14:57.501Z,44.47
2023-02-13T04:19:08.248Z,43.53
2023-02-13T04:21:15.637Z,38.00
2023-02-13T04:23:20.045Z,48.13
2023-02-13T04:25:24.479Z,44.63
2023-02-13T04:27:29.338Z,37.17
2023-02-13T04:29:30.990Z,35.83
2023-02-13T04:31:32.781Z,48.65
2023-02-13T04:33:34.440Z,43.83
2023-02-13T04:35:41.987Z,40.20
2023-02-13T04:37:43.518Z,45.70
2023-02-13T04:39:45.148Z,40.95
2023-02-13T04:41:49.378Z,41.25
2023-02-13T04:43:52.433Z,41.78
2023-02-13T04:45:56.846Z,42.80
2023-02-13T04:48:01.316Z,48.95
2023-02-13T04:50:21.893Z,46.42
2023-02-13T04:52:23.494Z,49.78
2023-02-13T04:54:27.840Z,53.85
2023-02-13T04:56:32.142Z,46.75
2023-02-13T04:58:53.235Z,44.17
2023-02-13T05:00:58.878Z,47.15
2023-02-13T05:03:11.030Z,42.45
2023-02-13T05:05:12.762Z,50.88
2023-02-13T05:07:17.323Z,43.83
2023-02-13T05:09:18.923Z,46.15
2023-02-13T05:11:20.523Z,48.50
2023-02-13T05:13:22.276Z,46.15
2023-02-13T05:15:24.024Z,51.00
2023-02-13T05:17:28.658Z,45.53
2023-02-13T05:19:36.160Z,49.05
2023-02-13T05:21:59.141Z,44.78
2023-02-13T05:24:03.454Z,51.15
2023-02-13T05:26:07.871Z,45.75
2023-02-13T05:28:29.749Z,48.97
2023-02-13T05:30:33.819Z,46.92
2023-02-13T05:32:38.401Z,47.30
2023-02-13T05:34:58.423Z,47.03
2023-02-13T05:37:02.924Z,50.28
2023-02-13T05:41:13.564Z,50.35
2023-02-13T05:43:15.178Z,57.13
2023-02-13T05:45:22.833Z,47.15
2023-02-13T05:47:24.370Z,47.28
2023-02-13T05:49:25.956Z,53.28
2023-02-13T05:51:30.582Z,48.45
2023-02-13T05:53:35.291Z,55.40
2023-02-13T05:55:39.990Z,56.28
2023-02-13T05:57:41.723Z,49.28
2023-02-13T05:59:43.274Z,54.05
2023-02-13T06:01:44.786Z,51.70
2023-02-13T06:05:50.442Z,52.75
2023-02-13T06:07:58.069Z,50.15
2023-02-13T06:10:02.812Z,47.83
2023-02-13T06:12:04.431Z,47.25
2023-02-13T06:14:06.076Z,49.30
2023-02-13T06:16:26.338Z,53.85
2023-02-13T06:18:31.085Z,44.60
2023-02-13T06:20:32.758Z,53.53
2023-02-13T06:22:34.290Z,54.55
2023-02-13T06:26:58.876Z,54.78
2023-02-13T06:29:00.434Z,46.38
2023-02-13T06:33:06.158Z,60.70
2023-02-13T06:35:08.195Z,53.42
2023-02-13T06:37:12.432Z,53.78
2023-02-13T06:39:13.958Z,45.85
2023-02-13T06:43:22.449Z,49.33
2023-02-13T06:45:42.645Z,50.05
2023-02-13T06:50:07.470Z,59.58
2023-02-13T06:52:11.592Z,57.70
2023-02-13T06:54:13.248Z,54.58
2023-02-13T06:56:14.722Z,57.95
2023-02-13T06:58:16.211Z,60.42
2023-02-13T07:00:18.920Z,61.83
2023-02-13T07:02:20.608Z,50.92
2023-02-13T07:04:22.181Z,55.10
2023-02-13T07:06:42.486Z,53.10
2023-02-13T07:08:46.837Z,58.72
2023-02-13T07:10:51.289Z,57.88
2023-02-13T07:15:08.265Z,56.83
2023-02-13T07:17:12.639Z,54.65
2023-02-13T07:19:17.254Z,54.80
2023-02-13T07:21:21.560Z,63.60
2023-02-13T07:23:25.882Z,54.83
2023-02-13T07:25:28.158Z,52.10
2023-02-13T07:27:29.919Z,55.85
2023-02-13T07:29:37.205Z,55.47
2023-02-13T07:31:57.148Z,62.63
2023-02-13T07:33:58.761Z,65.10
2023-02-13T07:36:18.799Z,59.78
2023-02-13T07:38:20.383Z,61.33
2023-02-13T07:40:22.287Z,62.47
2023-02-13T07:42:33.155Z,64.03
2023-02-13T07:44:34.621Z,61.85
2023-02-13T07:46:39.237Z,63.75
2023-02-13T07:48:43.673Z,66.25
2023-02-13T07:50:48.137Z,61.28
2023-02-13T07:52:56.277Z,66.32
2023-02-13T07:55:00.660Z,58.38
2023-02-13T07:57:02.451Z,54.08
2023-02-13T07:59:04.516Z,58.70
2023-02-13T08:01:14.000Z,58.15
2023-02-13T08:03:34.236Z,65.88
2023-02-13T08:05:42.026Z,53.17
2023-02-13T08:07:51.190Z,56.47
2023-02-13T08:10:25.181Z,55.65
2023-02-13T08:12:40.905Z,53.97
2023-02-13T08:14:50.252Z,55.33
2023-02-13T08:17:06.090Z,62.47
2023-02-13T08:19:17.914Z,59.70
2023-02-13T08:21:37.454Z,57.85
2023-02-13T08:23:49.124Z,55.72
2023-02-13T08:26:03.855Z,56.05
2023-02-13T08:28:12.534Z,58.95
2023-02-13T08:30:23.392Z,55.75
2023-02-13T08:32:53.166Z,60.10
2023-02-13T08:35:11.418Z,55.25
2023-02-13T08:37:24.344Z,56.88
2023-02-13T08:39:38.375Z,65.22
2023-02-13T08:41:42.456Z,57.00
2023-02-13T08:43:43.990Z,54.50
2023-02-13T08:45:45.757Z,58.08
2023-02-13T08:47:50.365Z,61.47
2023-02-13T08:49:51.836Z,55.30
2023-02-13T08:51:56.006Z,60.35
2023-02-13T08:53:57.579Z,55.72
2023-02-13T08:56:02.469Z,60.22
2023-02-13T08:58:04.796Z,56.25
2023-02-13T09:00:12.404Z,56.55
2023-02-13T09:02:16.485Z,56.42
2023-02-13T09:04:20.936Z,57.13
2023-02-13T09:06:23.016Z,56.88
2023-02-13T09:08:30.930Z,59.80
2023-02-13T09:10:33.008Z,52.55
2023-02-13T09:12:34.519Z,54.88
2023-02-13T09:14:39.664Z,55.65
2023-02-13T09:16:41.181Z,52.95
2023-02-13T09:18:42.795Z,57.33
2023-02-13T09:20:50.292Z,54.20
2023-02-13T09:22:51.875Z,56.95
2023-02-13T09:24:53.447Z,55.83
2023-02-13T09:26:56.695Z,52.55
2023-02-13T09:29:01.998Z,51.40
2023-02-13T09:31:24.211Z,50.47
2023-02-13T09:33:26.266Z,52.20
2023-02-13T09:35:30.726Z,54.92
2023-02-13T09:37:35.312Z,55.60
2023-02-13T09:39:36.910Z,51.15
2023-02-13T09:41:42.926Z,47.55
2023-02-13T09:44:33.781Z,46.10
2023-02-13T09:46:37.150Z,50.78
2023-02-13T09:48:40.768Z,49.42
2023-02-13T09:50:48.350Z,58.45
2023-02-13T09:54:57.294Z,49.35
2023-02-13T09:57:05.091Z,54.10
2023-02-13T09:59:15.917Z,57.58
2023-02-13T10:01:22.481Z,44.60
2023-02-13T10:03:43.198Z,46.63
2023-02-13T10:05:44.660Z,49.28
2023-02-13T10:08:23.722Z,48.20
2023-02-13T10:10:37.473Z,43.33
2023-02-13T10:12:41.822Z,51.45
2023-02-13T10:14:54.685Z,44.80
2023-02-13T10:17:17.873Z,45.53
2023-02-13T10:19:19.333Z,46.33
2023-02-13T10:23:32.225Z,48.28
2023-02-13T10:25:56.019Z,46.63
2023-02-13T10:28:00.803Z,43.40
2023-02-13T10:30:05.886Z,45.03
2023-02-13T10:32:10.755Z,42.58
2023-02-13T10:34:14.606Z,42.50
2023-02-13T10:36:18.260Z,48.75
2023-02-13T10:38:21.420Z,48.58
2023-02-13T10:40:32.017Z,47.85
2023-02-13T10:43:18.714Z,43.65
2023-02-13T10:45:42.078Z,49.70
2023-02-13T10:47:44.334Z,41.65
2023-02-13T10:50:05.252Z,43.78
2023-02-13T10:52:35.484Z,46.90
2023-02-13T10:54:46.952Z,45.00
2023-02-13T10:56:51.340Z,41.33
2023-02-13T10:58:58.578Z,42.60
2023-02-13T11:01:22.865Z,41.78
2023-02-13T11:03:28.347Z,42.38
2023-02-13T11:05:39.596Z,43.60
2023-02-13T11:07:44.829Z,42.58
2023-02-13T11:09:49.513Z,42.63
2023-02-13T11:11:55.107Z,43.70
2023-02-13T11:14:18.999Z,45.53
2023-02-13T11:16:22.059Z,46.50
2023-02-13T11:18:28.747Z,39.08
2023-02-13T11:20:35.681Z,39.85
2023-02-13T11:22:43.778Z,40.83
2023-02-13T11:24:57.148Z,47.35
2023-02-13T11:27:09.634Z,44.15
2023-02-13T11:29:38.385Z,41.80
2023-02-13T11:31:42.206Z,43.45
2023-02-13T11:33:45.102Z,46.63
2023-02-13T11:35:52.045Z,38.10
2023-02-13T11:38:24.882Z,40.65
2023-02-13T11:40:33.817Z,36.53
2023-02-13T11:42:43.690Z,44.08
2023-02-13T11:45:00.467Z,39.58
2023-02-13T11:47:05.261Z,39.13
2023-02-13T11:49:33.685Z,31.50
2023-02-13T11:51:45.395Z,38.33
2023-02-13T11:53:52.913Z,37.10
2023-02-13T11:56:05.457Z,29.73
2023-02-13T11:58:10.188Z,35.42
2023-02-13T12:00:41.544Z,28.90
2023-02-13T12:03:01.704Z,30.35
2023-02-13T12:05:15.193Z,39.10
2023-02-13T12:07:22.345Z,34.85
2023-02-13T12:09:44.069Z,35.42
2023-02-13T12:12:06.563Z,40.20
2023-02-13T12:14:16.635Z,37.03
2023-02-13T12:16:39.001Z,29.52
2023-02-13T12:18:46.733Z,32.15
2023-02-13T12:21:00.574Z,32.38
2023-02-13T12:23:14.603Z,34.53
2023-02-13T12:25:28.349Z,35.83
2023-02-13T12:27:37.124Z,30.92
2023-02-13T12:30:07.472Z,31.98
2023-02-13T12:32:17.556Z,31.65
2023-02-13T12:34:25.271Z,30.67
2023-02-13T12:36:46.736Z,34.13
2023-02-13T12:41:01.232Z,31.37
2023-02-13T12:43:20.583Z,32.08
2023-02-13T12:45:28.540Z,31.08
2023-02-13T12:47:31.640Z,32.15
2023-02-13T12:49:46.398Z,29.52
2023-02-13T12:51:56.388Z,33.65
2023-02-13T12:54:12.707Z,33.13
2023-02-13T12:56:29.206Z,30.83
2023-02-13T12:58:48.773Z,27.13
2023-02-13T13:00:53.095Z,27.60
2023-02-13T13:03:03.517Z,25.77
2023-02-13T13:05:14.060Z,30.52
2023-02-13T13:07:21.653Z,26.75
2023-02-13T13:09:48.995Z,31.38
2023-02-13T13:11:53.413Z,27.20
2023-02-13T13:16:10.170Z,27.40
2023-02-13T13:18:23.071Z,26.70
2023-02-13T13:20:24.960Z,30.75
2023-02-13T13:22:29.071Z,27.58
2023-02-13T13:24:54.858Z,26.75
2023-02-13T13:27:00.460Z,26.60
2023-02-13T13:29:03.886Z,26.88
2023-02-13T13:31:06.003Z,33.15
2023-02-13T13:33:16.558Z,27.40
2023-02-13T13:35:21.772Z,30.60
2023-02-13T13:37:23.197Z,30.80
2023-02-13T13:39:40.997Z,29.45
2023-02-13T13:41:55.130Z,31.15
2023-02-13T13:44:12.887Z,27.48
2023-02-13T13:46:26.144Z,27.73
2023-02-13T13:48:52.122Z,30.60
2023-02-13T13:50:54.040Z,26.75
2023-02-13T13:53:08.004Z,32.00
2023-02-13T13:55:29.437Z,28.98
2023-02-13T13:57:39.762Z,33.67
2023-02-13T13:59:51.886Z,28.27
2023-02-13T14:02:13.354Z,28.33
2023-02-13T14:04:33.545Z,30.77
2023-02-13T14:06:47.043Z,33.50
2023-02-13T14:08:59.129Z,36.25
2023-02-13T14:11:02.636Z,29.42
2023-02-13T14:13:04.183Z,32.60
2023-02-13T14:15:30.434Z,31.08
2023-02-13T14:17:46.225Z,30.75
2023-02-13T14:19:53.359Z,32.70
2023-02-13T14:21:56.816Z,32.72
2023-02-13T14:24:20.692Z,35.25
2023-02-13T14:26:33.979Z,38.70
2023-02-13T14:28:41.823Z,32.88
2023-02-13T14:30:44.949Z,35.75
2023-02-13T14:32:48.275Z,32.33
2023-02-13T14:34:56.925Z,35.88
2023-02-13T14:37:02.891Z,38.08
2023-02-13T14:39:07.678Z,35.57
2023-02-13T14:41:32.397Z,33.78
2023-02-13T14:43:54.716Z,31.80
2023-02-13T14:46:03.260Z,31.75
2023-02-13T14:48:13.188Z,35.60
2023-02-13T14:50:19.201Z,37.22
2023-02-13T14:52:29.397Z,34.55
2023-02-13T14:54:36.672Z,26.65
2023-02-13T14:56:39.040Z,33.60
2023-02-13T14:59:02.420Z,32.22
2023-02-13T15:01:18.792Z,37.67
2023-02-13T15:03:23.189Z,33.97
2023-02-13T15:05:28.166Z,34.33
2023-02-13T15:07:31.422Z,37.28
2023-02-13T15:09:40.227Z,33.17
2023-02-13T15:11:44.508Z,37.42
2023-02-13T15:13:46.069Z,37.28
2023-02-13T15:16:14.110Z,38.53
2023-02-13T15:18:24.225Z,31.70
2023-02-13T15:20:32.023Z,43.75
2023-02-13T15:22:35.586Z,37.95
2023-02-13T15:24:46.081Z,33.75
2023-02-13T15:26:55.212Z,37.23
2023-02-13T15:28:59.938Z,38.70
2023-02-13T15:31:20.963Z,39.15
2023-02-13T15:33:32.699Z,41.08
2023-02-13T15:35:37.687Z,39.92
2023-02-13T15:37:39.261Z,33.10
2023-02-13T15:39:46.718Z,30.98
2023-02-13T15:43:53.710Z,39.60
2023-02-13T15:45:56.500Z,37.15
2023-02-13T15:48:00.665Z,42.42
2023-02-13T15:50:02.264Z,38.08
2023-02-13T15:52:15.001Z,36.92
2023-02-13T15:54:29.912Z,42.60
2023-02-13T15:56:35.401Z,33.17
2023-02-13T15:58:39.697Z,38.85
2023-02-13T16:00:42.450Z,42.88
2023-02-13T16:02:46.301Z,46.33
2023-02-13T16:04:54.487Z,36.70
2023-02-13T16:06:56.377Z,42.28
2023-02-13T16:08:58.612Z,39.78
2023-02-13T16:11:18.312Z,44.90
2023-02-13T16:13:22.992Z,43.53
2023-02-13T16:15:29.411Z,47.20
2023-02-13T16:17:35.225Z,42.25
2023-02-13T16:19:39.626Z,38.90
2023-02-13T16:21:48.215Z,51.03
2023-02-13T16:23:56.146Z,50.20
2023-02-13T16:26:02.447Z,38.45
2023-02-13T16:28:10.189Z,45.80
2023-02-13T16:30:18.200Z,46.17
2023-02-13T16:32:31.203Z,41.60
2023-02-13T16:34:38.480Z,45.65
2023-02-13T16:36:40.378Z,44.63
2023-02-13T16:38:48.602Z,47.03
2023-02-13T16:40:50.184Z,43.65
2023-02-13T16:43:14.642Z,48.05
2023-02-13T16:45:23.161Z,50.25
2023-02-13T16:47:27.915Z,55.60
2023-02-13T16:49:31.778Z,46.60
2023-02-13T16:51:36.019Z,49.03
2023-02-13T16:53:40.720Z,52.13
2023-02-13T16:55:45.168Z,48.65
2023-02-13T16:57:47.358Z,47.90
2023-02-13T16:59:48.786Z,53.42
2023-02-13T17:02:12.720Z,53.13
2023-02-13T17:04:22.150Z,47.30
2023-02-13T17:06:24.594Z,57.70
2023-02-13T17:08:32.332Z,57.58
2023-02-13T17:10:41.999Z,50.38
2023-02-13T17:12:46.586Z,60.55
2023-02-13T17:14:48.162Z,55.03
2023-02-13T17:16:49.644Z,58.95
2023-02-13T17:18:57.134Z,62.28
2023-02-13T17:23:06.525Z,52.75
2023-02-13T17:25:25.093Z,57.63
2023-02-13T17:27:31.090Z,61.40
2023-02-13T17:29:37.207Z,54.83
2023-02-13T17:31:41.284Z,60.10
2023-02-13T17:33:47.804Z,55.40
2023-02-13T17:35:56.256Z,55.15
2023-02-13T17:37:59.392Z,55.30
2023-02-13T17:40:22.786Z,54.72
2023-02-13T17:42:26.853Z,57.78
2023-02-13T17:44:30.020Z,57.72
2023-02-13T17:46:33.365Z,53.88
2023-02-13T17:48:39.204Z,59.17
2023-02-13T17:50:41.933Z,59.88
2023-02-13T17:52:49.677Z,52.67
2023-02-13T17:54:52.971Z,59.45
2023-02-13T17:56:56.123Z,54.95
2023-02-13T17:58:57.786Z,62.75
2023-02-13T18:01:02.518Z,62.83
2023-02-13T18:03:04.542Z,59.42
2023-02-13T18:05:06.692Z,64.68
2023-02-13T18:07:12.175Z,59.22
2023-02-13T18:09:32.707Z,58.78
2023-02-13T18:11:34.448Z,56.55
2023-02-13T18:13:37.057Z,61.72
2023-02-13T18:15:40.076Z,60.60
2023-02-13T18:17:45.316Z,60.05
2023-02-13T18:19:50.851Z,53.75
2023-02-13T18:21:52.604Z,57.67
2023-02-13T18:23:54.189Z,58.42
2023-02-13T18:26:03.476Z,60.42
2023-02-13T18:28:05.141Z,58.63
2023-02-13T18:30:06.911Z,59.55
2023-02-13T18:32:10.369Z,59.70
2023-02-13T18:34:30.924Z,59.08
2023-02-13T18:36:32.450Z,63.78
2023-02-13T18:38:36.933Z,62.83
2023-02-13T18:40:39.427Z,66.78
2023-02-13T18:42:44.288Z,60.30
2023-02-13T18:44:48.709Z,60.88
2023-02-13T18:46:50.181Z,58.17
2023-02-13T18:48:54.241Z,60.83
2023-02-13T18:50:56.101Z,64.82
2023-02-13T18:52:57.778Z,57.75
2023-02-13T18:54:59.480Z,64.10
2023-02-13T18:57:03.689Z,69.60
2023-02-13T19:01:14.337Z,64.60
2023-02-13T19:03:21.785Z,63.78
2023-02-13T19:05:26.715Z,62.05
2023-02-13T19:07:28.253Z,63.58
2023-02-13T19:09:33.036Z,61.38
2023-02-13T19:11:35.801Z,66.82
2023-02-13T19:13:37.355Z,64.68
2023-02-13T19:17:45.808Z,64.95
2023-02-13T19:19:54.303Z,64.30
2023-02-13T19:21:55.972Z,64.88
2023-02-13T19:26:11.935Z,65.65
2023-02-13T19:28:18.917Z,67.25
2023-02-13T19:30:20.530Z,69.85
2023-02-13T19:34:45.038Z,70.15
2023-02-13T19:36:46.445Z,68.15
2023-02-13T19:38:48.489Z,70.95
2023-02-13T19:40:49.936Z,71.30
2023-02-13T19:43:10.666Z,65.90
2023-02-13T19:45:15.466Z,65.90
2023-02-13T19:47:17.148Z,65.35
2023-02-13T19:49:19.473Z,64.05
2023-02-13T19:51:25.326Z,68.60
2023-02-13T19:53:29.529Z,75.10
2023-02-13T19:55:30.910Z,68.72
2023-02-13T19:57:35.552Z,63.83
2023-02-13T19:59:39.826Z,65.97
2023-02-13T20:01:42.800Z,60.95
2023-02-13T20:03:47.154Z,67.10
2023-02-13T20:05:51.283Z,59.40
2023-02-13T20:10:15.448Z,66.75
2023-02-13T20:12:19.729Z,64.70
2023-02-13T20:14:24.158Z,63.70
2023-02-13T20:16:32.812Z,66.28
2023-02-13T20:18:35.408Z,61.83
2023-02-13T20:20:39.065Z,55.97
2023-02-13T20:22:40.577Z,60.90
2023-02-13T20:24:42.430Z,66.78
2023-02-13T20:26:47.085Z,59.60
2023-02-13T20:28:48.720Z,63.35
2023-02-13T20:30:55.727Z,59.22
2023-02-13T20:33:02.271Z,59.38
2023-02-13T20:35:08.878Z,58.40
2023-02-13T20:37:16.227Z,61.80
2023-02-13T20:39:23.170Z,54.95
2023-02-13T20:41:29.268Z,42.35
2023-02-13T20:43:33.147Z,50.53
2023-02-13T20:45:39.983Z,50.83
2023-02-13T20:47:48.495Z,48.08
2023-02-13T20:49:52.157Z,52.58
2023-02-13T20:51:56.068Z,62.78
2023-02-13T20:54:00.609Z,63.13
2023-02-13T20:56:07.317Z,60.13
2023-02-13T20:58:13.427Z,57.63
2023-02-13T21:00:17.004Z,65.97
2023-02-13T21:02:20.821Z,61.53
2023-02-13T21:04:25.004Z,54.83
2023-02-13T21:06:30.864Z,57.45
2023-02-13T21:08:35.261Z,60.95
2023-02-13T21:11:00.535Z,53.35
2023-02-13T21:13:02.270Z,58.35
2023-02-13T21:15:03.803Z,47.25
2023-02-13T21:17:09.598Z,42.13
2023-02-13T21:19:13.292Z,39.40
2023-02-13T21:21:14.842Z,38.30
2023-02-13T21:23:16.458Z,44.92
2023-02-13T21:25:18.715Z,53.25
2023-02-13T21:27:23.172Z,42.00
2023-02-13T21:29:27.610Z,48.45
2023-02-13T21:33:36.065Z,48.10
2023-02-13T21:35:40.076Z,65.57
2023-02-13T21:39:48.275Z,61.20
2023-02-13T21:41:49.720Z,61.13
2023-02-13T21:44:11.689Z,101.25
2023-02-13T21:46:13.198Z,87.00
2023-02-13T21:48:17.668Z,94.85
2023-02-13T21:50:22.280Z,91.68
2023-02-13T21:52:26.416Z,95.20
2023-02-13T21:54:27.956Z,127.05
2023-02-13T21:56:33.587Z,127.03
2023-02-13T21:58:39.478Z,132.95
2023-02-13T22:00:43.714Z,126.40
2023-02-13T22:04:52.293Z,129.43
2023-02-13T22:09:01.991Z,139.93
2023-02-13T22:11:03.936Z,133.05
2023-02-13T22:13:08.306Z,141.48
2023-02-13T22:15:12.747Z,130.93
2023-02-13T22:17:17.085Z,132.55
2023-02-13T22:19:18.618Z,136.00
2023-02-13T22:21:24.454Z,141.23
2023-02-13T22:23:28.962Z,141.65
2023-02-13T22:25:30.483Z,133.43
2023-02-13T22:27:32.116Z,130.00
2023-02-13T22:29:33.681Z,135.90
2023-02-13T22:34:04.010Z,148.43
2023-02-13T22:36:06.641Z,140.85
2023-02-13T22:38:08.677Z,138.40
2023-02-13T22:40:12.827Z,144.93
2023-02-13T22:42:14.306Z,129.23
2023-02-13T22:44:15.766Z,131.50
2023-02-13T22:46:24.548Z,133.50
2023-02-13T22:48:29.016Z,136.27
2023-02-13T22:50:33.951Z,138.57
2023-02-13T22:52:35.462Z,131.00
2023-02-13T22:54:37.585Z,142.55
2023-02-13T22:56:42.113Z,139.73
2023-02-13T22:58:46.221Z,125.53
2023-02-13T23:00:50.565Z,133.15
2023-02-13T23:02:54.631Z,148.07
2023-02-13T23:04:59.106Z,145.88
2023-02-13T23:07:00.587Z,137.77
2023-02-13T23:09:05.096Z,153.93
2023-02-13T23:11:32.592Z,151.82
2023-02-13T23:13:34.358Z,138.85
2023-02-13T23:15:36.518Z,201.23
2023-02-13T23:18:02.522Z,204.32
2023-02-13T23:20:04.238Z,185.88
2023-02-13T23:22:05.768Z,200.57
2023-02-13T23:24:07.417Z,215.18
2023-02-13T23:26:08.961Z,251.48
2023-02-13T23:28:13.388Z,189.85
2023-02-13T23:30:20.731Z,225.48
2023-02-13T23:32:28.881Z,220.70
2023-02-13T23:34:32.621Z,317.73
2023-02-13T23:36:43.807Z,271.70
2023-02-13T23:39:15.236Z,259.88
2023-02-13T23:41:30.593Z,298.90
2023-02-13T23:43:38.985Z,291.98
2023-02-13T23:45:51.780Z,289.63
2023-02-13T23:48:05.314Z,321.35
2023-02-13T23:50:16.064Z,219.55
2023-02-13T23:54:41.070Z,273.42
2023-02-13T23:56:52.814Z,219.60
2023-02-13T23:59:06.836Z,231.25
